createdAt,value
2023-02-03T00:00:10.479Z,100528.66
2023-02-03T00:03:02.386Z,100523.00
2023-02-03T00:05:31.300Z,100526.20
2023-02-03T00:07:59.229Z,100529.66
2023-02-03T00:10:27.551Z,100526.70
2023-02-03T00:12:57.658Z,100527.21
2023-02-03T00:15:26.802Z,100524.05
2023-02-03T00:17:54.652Z,100526.27
2023-02-03T00:20:22.855Z,100524.33
2023-02-03T00:22:50.708Z,100527.44
2023-02-03T00:25:18.926Z,100526.69
2023-02-03T00:27:47.380Z,100527.38
2023-02-03T00:30:15.392Z,100532.16
2023-02-03T00:32:43.344Z,100537.14
2023-02-03T00:35:12.820Z,100535.95
2023-02-03T00:37:40.718Z,100533.11
2023-02-03T00:40:09.487Z,100528.64
2023-02-03T00:42:37.531Z,100526.02
2023-02-03T00:45:06.680Z,100520.59
2023-02-03T00:47:34.471Z,100520.48
2023-02-03T00:50:02.399Z,100519.33
2023-02-03T00:52:30.468Z,100519.46
2023-02-03T00:54:58.363Z,100518.25
2023-02-03T00:57:26.421Z,100507.33
2023-02-03T00:59:54.892Z,100508.95
2023-02-03T01:02:23.207Z,100503.02
2023-02-03T01:04:53.569Z,100498.84
2023-02-03T01:07:21.708Z,100498.39
2023-02-03T01:09:50.089Z,100495.22
2023-02-03T01:12:18.046Z,100493.70
2023-02-03T01:14:46.049Z,100494.41
2023-02-03T01:17:14.064Z,100496.11
2023-02-03T01:19:41.966Z,100489.85
2023-02-03T01:22:09.888Z,100486.55
2023-02-03T01:24:37.833Z,100483.14
2023-02-03T01:27:06.507Z,100479.82
2023-02-03T01:29:34.432Z,100475.78
2023-02-03T01:32:02.649Z,100474.01
2023-02-03T01:34:30.914Z,100468.84
2023-02-03T01:37:00.267Z,100465.30
2023-02-03T01:39:29.690Z,100460.15
2023-02-03T01:41:57.785Z,100458.38
2023-02-03T01:44:46.121Z,100462.23
2023-02-03T01:47:22.960Z,100458.56
2023-02-03T01:50:00.751Z,100458.75
2023-02-03T01:52:30.068Z,100448.67
2023-02-03T01:55:00.658Z,100442.20
2023-02-03T01:57:34.820Z,100440.06
2023-02-03T02:00:06.968Z,100435.89
2023-02-03T02:02:44.936Z,100434.30
2023-02-03T02:05:16.233Z,100430.48
2023-02-03T02:07:46.394Z,100422.23
2023-02-03T02:10:14.569Z,100423.30
2023-02-03T02:12:43.376Z,100414.08
2023-02-03T02:15:11.529Z,100408.10
2023-02-03T02:18:12.791Z,100413.64
2023-02-03T02:21:12.372Z,100411.93
2023-02-03T02:24:19.420Z,100408.72
2023-02-03T02:27:19.163Z,100405.33
2023-02-03T02:30:00.758Z,100407.33
2023-02-03T02:32:34.483Z,100407.49
2023-02-03T02:35:18.232Z,100414.00
2023-02-03T02:38:04.833Z,100413.58
2023-02-03T02:40:44.614Z,100407.98
2023-02-03T02:43:18.929Z,100404.27
2023-02-03T02:45:50.868Z,100394.66
2023-02-03T02:48:33.481Z,100393.63
2023-02-03T02:51:05.353Z,100388.80
2023-02-03T02:53:55.006Z,100380.92
2023-02-03T02:56:27.411Z,100376.97
2023-02-03T02:58:57.959Z,100373.70
2023-02-03T03:01:26.672Z,100372.40
2023-02-03T03:03:54.971Z,100365.70
2023-02-03T03:06:26.147Z,100366.89
2023-02-03T03:09:02.533Z,100368.17
2023-02-03T03:11:41.441Z,100367.38
2023-02-03T03:14:13.399Z,100364.55
2023-02-03T03:16:48.839Z,100363.13
2023-02-03T03:19:22.446Z,100365.88
2023-02-03T03:22:01.289Z,100368.71
2023-02-03T03:24:37.607Z,100368.09
2023-02-03T03:27:13.280Z,100366.84
2023-02-03T03:29:51.275Z,100366.46
2023-02-03T03:32:19.944Z,100363.98
2023-02-03T03:34:48.855Z,100356.77
2023-02-03T03:37:28.473Z,100357.42
2023-02-03T03:39:59.868Z,100356.80
2023-02-03T03:42:40.717Z,100353.91
2023-02-03T03:45:25.399Z,100349.70
2023-02-03T03:48:29.420Z,100345.74
2023-02-03T03:51:02.612Z,100344.14
2023-02-03T03:53:34.707Z,100344.05
2023-02-03T03:56:06.638Z,100342.27
2023-02-03T03:58:37.941Z,100335.00
2023-02-03T04:01:08.379Z,100333.46
2023-02-03T04:03:45.756Z,100327.80
2023-02-03T04:06:14.622Z,100332.23
2023-02-03T04:08:42.530Z,100322.90
2023-02-03T04:11:10.489Z,100323.14
2023-02-03T04:13:38.362Z,100318.17
2023-02-03T04:16:06.274Z,100323.73
2023-02-03T04:18:34.257Z,100321.79
2023-02-03T04:21:02.199Z,100323.86
2023-02-03T04:23:30.035Z,100320.73
2023-02-03T04:26:01.249Z,100318.15
2023-02-03T04:28:29.050Z,100318.98
2023-02-03T04:31:01.168Z,100319.98
2023-02-03T04:33:29.097Z,100316.98
2023-02-03T04:35:57.396Z,100315.79
2023-02-03T04:38:25.318Z,100314.84
2023-02-03T04:40:53.186Z,100310.41
2023-02-03T04:43:21.086Z,100303.61
2023-02-03T04:45:49.029Z,100305.09
2023-02-03T04:48:17.074Z,100297.54
2023-02-03T04:50:45.019Z,100298.56
2023-02-03T04:53:14.521Z,100288.75
2023-02-03T04:55:50.181Z,100290.65
2023-02-03T04:58:18.009Z,100286.31
2023-02-03T05:00:45.873Z,100283.64
2023-02-03T05:03:14.131Z,100275.77
2023-02-03T05:05:42.255Z,100270.05
2023-02-03T05:08:10.320Z,100265.99
2023-02-03T05:10:38.211Z,100265.98
2023-02-03T05:13:06.170Z,100260.48
2023-02-03T05:15:33.994Z,100258.65
2023-02-03T05:18:01.943Z,100253.11
2023-02-03T05:20:29.846Z,100249.81
2023-02-03T05:22:58.783Z,100246.49
2023-02-03T05:25:27.469Z,100241.17
2023-02-03T05:27:55.332Z,100232.02
2023-02-03T05:30:23.362Z,100226.04
2023-02-03T05:32:51.316Z,100217.83
2023-02-03T05:35:19.244Z,100212.14
2023-02-03T05:37:48.824Z,100203.44
2023-02-03T05:40:33.278Z,100200.60
2023-02-03T05:43:01.219Z,100196.23
2023-02-03T05:45:29.158Z,100196.30
2023-02-03T05:47:57.293Z,100188.46
2023-02-03T05:50:27.181Z,100187.00
2023-02-03T05:52:55.420Z,100187.48
2023-02-03T05:55:23.245Z,100184.76
2023-02-03T05:57:51.210Z,100179.77
2023-02-03T06:00:21.336Z,100176.77
2023-02-03T06:02:56.311Z,100172.19
2023-02-03T06:05:26.236Z,100176.60
2023-02-03T06:07:54.518Z,100181.09
2023-02-03T06:10:22.957Z,100179.31
2023-02-03T06:12:50.991Z,100178.61
2023-02-03T06:15:19.174Z,100174.19
2023-02-03T06:17:48.693Z,100173.99
2023-02-03T06:20:19.268Z,100166.29
2023-02-03T06:22:47.112Z,100158.95
2023-02-03T06:25:14.938Z,100154.84
2023-02-03T06:27:42.916Z,100148.52
2023-02-03T06:30:12.050Z,100140.65
2023-02-03T06:32:39.866Z,100140.11
2023-02-03T06:35:08.617Z,100130.54
2023-02-03T06:37:37.496Z,100126.48
2023-02-03T06:40:06.210Z,100121.13
2023-02-03T06:42:34.059Z,100115.95
2023-02-03T06:45:01.936Z,100109.20
2023-02-03T06:47:29.817Z,100099.45
2023-02-03T06:49:57.681Z,100096.45
2023-02-03T06:52:25.492Z,100091.50
2023-02-03T06:54:53.323Z,100087.14
2023-02-03T06:57:21.465Z,100085.62
2023-02-03T06:59:49.483Z,100074.65
2023-02-03T07:02:17.463Z,100069.37
2023-02-03T07:04:45.584Z,100068.17
2023-02-03T07:07:13.718Z,100062.21
2023-02-03T07:09:41.954Z,100054.41
2023-02-03T07:12:10.317Z,100053.41
2023-02-03T07:14:39.530Z,100046.15
2023-02-03T07:17:07.720Z,100042.12
2023-02-03T07:19:35.526Z,100040.63
2023-02-03T07:22:03.344Z,100037.17
2023-02-03T07:24:31.170Z,100039.15
2023-02-03T07:26:59.069Z,100037.77
2023-02-03T07:29:26.957Z,100035.83
2023-02-03T07:31:55.046Z,100030.94
2023-02-03T07:34:23.062Z,100018.73
2023-02-03T07:36:50.860Z,100016.23
2023-02-03T07:39:18.687Z,100010.52
2023-02-03T07:41:46.663Z,100005.54
2023-02-03T07:44:14.568Z,100004.06
2023-02-03T07:46:45.013Z,99999.67
2023-02-03T07:49:14.018Z,99993.57
2023-02-03T07:51:42.021Z,99989.73
2023-02-03T07:54:09.938Z,99986.82
2023-02-03T07:56:37.781Z,99983.61
2023-02-03T07:59:05.859Z,99979.96
2023-02-03T08:01:34.243Z,99977.88
2023-02-03T08:04:05.308Z,99971.02
2023-02-03T08:06:33.771Z,99961.31
2023-02-03T08:09:01.654Z,99954.92
2023-02-03T08:11:29.580Z,99952.45
2023-02-03T08:13:57.683Z,99948.77
2023-02-03T08:16:25.554Z,99941.52
2023-02-03T08:18:53.545Z,99933.03
2023-02-03T08:21:21.475Z,99929.09
2023-02-03T08:23:49.434Z,99923.05
2023-02-03T08:26:17.279Z,99919.49
2023-02-03T08:28:49.811Z,99906.42
2023-02-03T08:31:18.372Z,99903.33
2023-02-03T08:33:46.532Z,99892.27
2023-02-03T08:36:14.502Z,99881.83
2023-02-03T08:38:42.764Z,99881.52
2023-02-03T08:41:17.960Z,99875.20
2023-02-03T08:43:45.866Z,99867.67
2023-02-03T08:46:14.300Z,99855.66
2023-02-03T08:48:42.430Z,99843.55
2023-02-03T08:51:13.128Z,99829.56
2023-02-03T08:53:41.191Z,99823.35
2023-02-03T08:56:11.015Z,99817.30
2023-02-03T08:58:39.491Z,99803.09
2023-02-03T09:01:13.263Z,99793.23
2023-02-03T09:03:41.677Z,99789.70
2023-02-03T09:06:12.973Z,99786.59
2023-02-03T09:08:40.785Z,99785.09
2023-02-03T09:11:10.364Z,99785.05
2023-02-03T09:13:38.934Z,99782.25
2023-02-03T09:16:07.838Z,99777.70
2023-02-03T09:18:35.732Z,99778.84
2023-02-03T09:21:05.661Z,99778.05
2023-02-03T09:23:34.186Z,99777.10
2023-02-03T09:26:07.253Z,99770.95
2023-02-03T09:28:35.640Z,99766.91
2023-02-03T09:31:09.990Z,99757.55
2023-02-03T09:33:38.986Z,99746.45
2023-02-03T09:36:08.001Z,99743.75
2023-02-03T09:38:36.184Z,99732.55
2023-02-03T09:41:27.101Z,99727.26
2023-02-03T09:44:37.165Z,99720.55
2023-02-03T09:47:18.841Z,99710.22
2023-02-03T09:50:04.308Z,99701.22
2023-02-03T09:52:40.468Z,99691.61
2023-02-03T09:55:32.936Z,99683.81
2023-02-03T09:58:00.724Z,99674.83
2023-02-03T10:00:48.108Z,99664.55
2023-02-03T10:03:47.834Z,99659.27
2023-02-03T10:06:27.973Z,99650.36
2023-02-03T10:09:27.701Z,99641.13
2023-02-03T10:12:14.623Z,99628.68
2023-02-03T10:14:48.597Z,99621.98
2023-02-03T10:17:30.302Z,99612.34
2023-02-03T10:20:23.907Z,99608.98
2023-02-03T10:23:06.495Z,99604.68
2023-02-03T10:25:57.854Z,99595.58
2023-02-03T10:28:56.055Z,99584.73
2023-02-03T10:31:28.657Z,99581.38
2023-02-03T10:34:01.776Z,99568.58
2023-02-03T10:36:52.387Z,99563.22
2023-02-03T10:39:36.109Z,99547.23
2023-02-03T10:42:05.891Z,99537.52
2023-02-03T10:44:56.322Z,99525.23
2023-02-03T10:47:26.240Z,99522.40
2023-02-03T10:49:57.147Z,99518.27
2023-02-03T10:52:34.087Z,99513.48
2023-02-03T10:55:30.988Z,99505.92
2023-02-03T10:58:10.625Z,99497.62
2023-02-03T11:00:39.505Z,99488.53
2023-02-03T11:03:16.421Z,99481.91
2023-02-03T11:05:44.227Z,99469.36
2023-02-03T11:08:16.495Z,99458.08
2023-02-03T11:10:44.541Z,99447.84
2023-02-03T11:13:19.598Z,99436.69
2023-02-03T11:15:47.532Z,99426.67
2023-02-03T11:18:38.104Z,99420.57
2023-02-03T11:21:22.646Z,99405.52
2023-02-03T11:24:06.571Z,99394.27
2023-02-03T11:26:44.137Z,99377.48
2023-02-03T11:29:37.249Z,99370.65
2023-02-03T11:32:32.294Z,99363.28
2023-02-03T11:35:23.961Z,99349.33
2023-02-03T11:37:58.548Z,99345.14
2023-02-03T11:40:28.834Z,99336.94
2023-02-03T11:42:56.796Z,99332.58
2023-02-03T11:45:26.409Z,99328.94
2023-02-03T11:48:12.449Z,99320.86
2023-02-03T11:51:03.056Z,99318.89
2023-02-03T11:54:01.724Z,99306.11
2023-02-03T11:56:54.665Z,99304.63
2023-02-03T11:59:30.684Z,99291.91
2023-02-03T12:02:20.723Z,99287.05
2023-02-03T12:05:04.473Z,99275.39
2023-02-03T12:08:06.400Z,99266.03
2023-02-03T12:11:06.179Z,99258.46
2023-02-03T12:13:49.912Z,99247.00
2023-02-03T12:16:55.757Z,99234.85
2023-02-03T12:19:39.273Z,99216.48
2023-02-03T12:22:29.637Z,99204.13
2023-02-03T12:25:16.091Z,99185.71
2023-02-03T12:27:56.557Z,99180.98
2023-02-03T12:30:47.738Z,99167.73
2023-02-03T12:33:24.839Z,99153.81
2023-02-03T12:36:03.514Z,99141.91
2023-02-03T12:38:47.335Z,99136.23
2023-02-03T12:41:28.398Z,99121.85
2023-02-03T12:44:05.142Z,99116.14
2023-02-03T12:46:40.699Z,99105.80
2023-02-03T12:49:32.140Z,99098.26
2023-02-03T12:52:23.255Z,99094.39
2023-02-03T12:55:03.406Z,99085.23
2023-02-03T12:57:57.646Z,99078.14
2023-02-03T13:00:41.478Z,99070.50
2023-02-03T13:03:19.241Z,99063.77
2023-02-03T13:05:54.477Z,99054.86
2023-02-03T13:08:32.400Z,99048.08
2023-02-03T13:11:23.309Z,99039.83
2023-02-03T13:14:00.703Z,99036.25
2023-02-03T13:16:36.054Z,99029.77
2023-02-03T13:19:11.300Z,99026.04
2023-02-03T13:21:39.208Z,99010.07
2023-02-03T13:24:08.116Z,99012.34
2023-02-03T13:26:42.730Z,99011.53
2023-02-03T13:29:28.040Z,99003.47
2023-02-03T13:32:26.612Z,98993.52
2023-02-03T13:35:21.557Z,98987.97
2023-02-03T13:38:14.799Z,98980.33
2023-02-03T13:41:14.133Z,98980.80
2023-02-03T13:43:49.147Z,98969.36
2023-02-03T13:46:27.438Z,98964.02
2023-02-03T13:48:59.915Z,98964.94
2023-02-03T13:51:34.559Z,98954.30
2023-02-03T13:54:12.368Z,98950.77
2023-02-03T13:56:40.329Z,98948.82
2023-02-03T13:59:13.930Z,98946.21
2023-02-03T14:01:42.945Z,98946.30
2023-02-03T14:04:26.805Z,98946.21
2023-02-03T14:07:01.247Z,98947.39
2023-02-03T14:09:34.174Z,98937.71
2023-02-03T14:12:17.914Z,98932.15
2023-02-03T14:14:51.775Z,98924.58
2023-02-03T14:17:36.470Z,98930.23
2023-02-03T14:20:27.393Z,98926.02
2023-02-03T14:23:07.143Z,98919.54
2023-02-03T14:25:45.644Z,98922.16
2023-02-03T14:28:18.211Z,98927.87
2023-02-03T14:31:12.595Z,98926.25
2023-02-03T14:33:59.405Z,98919.73
2023-02-03T14:36:36.826Z,98923.13
2023-02-03T14:39:22.246Z,98923.84
2023-02-03T14:42:16.007Z,98925.09
2023-02-03T14:45:05.868Z,98924.59
2023-02-03T14:47:39.474Z,98923.00
2023-02-03T14:50:26.380Z,98924.13
2023-02-03T14:53:12.993Z,98924.20
2023-02-03T14:55:56.917Z,98921.44
2023-02-03T14:58:46.034Z,98914.87
2023-02-03T15:01:36.105Z,98914.27
2023-02-03T15:04:21.721Z,98914.62
2023-02-03T15:06:53.040Z,98908.38
2023-02-03T15:09:36.887Z,98910.86
2023-02-03T15:12:24.757Z,98913.48
2023-02-03T15:14:53.821Z,98915.96
2023-02-03T15:17:27.567Z,98917.31
2023-02-03T15:19:55.548Z,98913.91
2023-02-03T15:22:28.975Z,98916.79
2023-02-03T15:25:00.487Z,98913.85
2023-02-03T15:27:33.297Z,98912.58
2023-02-03T15:30:34.622Z,98906.83
2023-02-03T15:33:08.164Z,98919.90
2023-02-03T15:35:39.023Z,98926.34
2023-02-03T15:38:13.515Z,98921.52
2023-02-03T15:40:47.799Z,98909.88
2023-02-03T15:43:15.569Z,98925.81
2023-02-03T15:45:55.485Z,98937.73
2023-02-03T15:48:29.569Z,98942.36
2023-02-03T15:51:06.073Z,98937.33
2023-02-03T15:53:47.734Z,98940.56
2023-02-03T15:56:37.879Z,98951.58
2023-02-03T15:59:19.279Z,98965.34
2023-02-03T16:01:47.789Z,98966.77
2023-02-03T16:04:16.318Z,98968.48
2023-02-03T16:06:50.326Z,98965.27
2023-02-03T16:09:38.960Z,98976.36
2023-02-03T16:12:26.102Z,98979.14
2023-02-03T16:14:55.683Z,98982.70
2023-02-03T16:17:27.577Z,98984.58
2023-02-03T16:20:11.337Z,98984.00
2023-02-03T16:22:44.879Z,98979.15
2023-02-03T16:25:15.714Z,98984.59
2023-02-03T16:27:45.801Z,98984.82
2023-02-03T16:30:29.533Z,98986.76
2023-02-03T16:33:33.695Z,98993.71
2023-02-03T16:36:30.213Z,99000.76
2023-02-03T16:39:18.062Z,99000.11
2023-02-03T16:42:02.079Z,99001.39
2023-02-03T16:44:46.145Z,98997.59
2023-02-03T16:47:42.675Z,98991.42
2023-02-03T16:50:38.261Z,98989.52
2023-02-03T16:53:13.142Z,98986.30
2023-02-03T16:55:42.217Z,98990.88
2023-02-03T16:58:12.453Z,98991.98
2023-02-03T17:00:42.564Z,98994.21
2023-02-03T17:03:12.915Z,98997.40
2023-02-03T17:05:42.776Z,99007.36
2023-02-03T17:08:11.526Z,99014.41
2023-02-03T17:10:42.339Z,99020.69
2023-02-03T17:13:11.094Z,99024.42
2023-02-03T17:15:52.394Z,99029.58
2023-02-03T17:18:21.032Z,99039.38
2023-02-03T17:20:48.960Z,99043.00
2023-02-03T17:23:17.327Z,99045.00
2023-02-03T17:25:47.621Z,99048.05
2023-02-03T17:28:16.099Z,99050.98
2023-02-03T17:30:44.496Z,99049.08
2023-02-03T17:33:12.545Z,99048.53
2023-02-03T17:35:45.543Z,99053.47
2023-02-03T17:38:17.138Z,99059.02
2023-02-03T17:53:27.365Z,99079.51
2023-02-03T17:55:55.242Z,99081.41
2023-02-03T17:58:23.214Z,99088.23
2023-02-03T18:00:51.084Z,99087.98
2023-02-03T18:03:19.016Z,99081.11
2023-02-03T18:05:51.562Z,99082.31
2023-02-03T18:08:20.506Z,99081.64
2023-02-03T18:10:52.342Z,99081.44
2023-02-03T18:13:23.311Z,99083.13
2023-02-03T18:15:51.393Z,99078.27
2023-02-03T18:18:21.302Z,99080.13
2023-02-03T18:20:49.318Z,99076.58
2023-02-03T18:23:17.358Z,99083.45
2023-02-03T18:25:46.090Z,99086.28
2023-02-03T18:28:13.924Z,99098.64
2023-02-03T18:30:41.963Z,99101.59
2023-02-03T18:33:10.190Z,99108.75
2023-02-03T18:35:38.130Z,99107.63
2023-02-03T18:38:11.234Z,99111.52
2023-02-03T18:40:39.251Z,99116.52
2023-02-03T18:43:07.260Z,99124.62
2023-02-03T18:45:38.744Z,99134.06
2023-02-03T18:48:06.556Z,99136.18
2023-02-03T18:50:34.483Z,99135.70
2023-02-03T18:53:02.619Z,99134.55
2023-02-03T18:55:30.468Z,99137.80
2023-02-03T18:57:58.356Z,99143.38
2023-02-03T19:00:27.038Z,99150.64
2023-02-03T19:02:55.369Z,99152.13
2023-02-03T19:05:23.520Z,99156.62
2023-02-03T19:07:51.385Z,99160.36
2023-02-03T19:10:19.310Z,99163.00
2023-02-03T19:12:47.191Z,99162.17
2023-02-03T19:15:15.258Z,99156.63
2023-02-03T19:17:43.153Z,99161.30
2023-02-03T19:20:11.558Z,99159.46
2023-02-03T19:22:39.400Z,99160.30
2023-02-03T19:25:07.884Z,99158.95
2023-02-03T19:27:35.691Z,99165.30
2023-02-03T19:30:04.454Z,99163.49
2023-02-03T19:32:32.300Z,99165.34
2023-02-03T19:35:00.368Z,99169.55
2023-02-03T19:37:28.658Z,99180.40
2023-02-03T19:39:56.623Z,99184.52
2023-02-03T19:42:24.489Z,99185.27
2023-02-03T19:44:52.461Z,99188.17
2023-02-03T19:47:20.392Z,99188.02
2023-02-03T19:49:48.234Z,99188.71
2023-02-03T19:52:16.062Z,99188.79
2023-02-03T19:54:43.927Z,99190.78
2023-02-03T19:57:11.792Z,99194.23
2023-02-03T19:59:39.679Z,99196.70
2023-02-03T20:02:14.030Z,99197.15
2023-02-03T20:04:44.303Z,99199.32
2023-02-03T20:07:14.090Z,99208.64
2023-02-03T20:09:42.024Z,99213.42
2023-02-03T20:12:09.953Z,99216.30
2023-02-03T20:14:37.898Z,99225.84
2023-02-03T20:17:07.441Z,99241.81
2023-02-03T20:19:35.256Z,99248.59
2023-02-03T20:22:03.278Z,99252.02
2023-02-03T20:24:31.139Z,99258.42
2023-02-03T20:26:59.162Z,99264.83
2023-02-03T20:29:27.000Z,99269.48
2023-02-03T20:31:55.545Z,99272.19
2023-02-03T20:34:23.741Z,99274.16
2023-02-03T20:36:51.602Z,99285.55
2023-02-03T20:39:20.628Z,99292.47
2023-02-03T20:41:49.832Z,99297.87
2023-02-03T20:44:18.100Z,99297.73
2023-02-03T20:46:46.167Z,99298.76
2023-02-03T20:49:16.895Z,99298.83
2023-02-03T20:51:45.067Z,99292.20
2023-02-03T20:54:18.291Z,99300.71
2023-02-03T20:56:46.161Z,99303.58
2023-02-03T20:59:17.823Z,99311.31
2023-02-03T21:01:50.562Z,99323.77
2023-02-03T21:04:34.609Z,99333.99
2023-02-03T21:07:20.391Z,99339.36
2023-02-03T21:09:48.415Z,99349.33
2023-02-03T21:12:16.327Z,99352.23
2023-02-03T21:14:48.844Z,99358.89
2023-02-03T21:17:23.533Z,99365.20
2023-02-03T21:19:52.915Z,99369.28
2023-02-03T21:22:30.152Z,99371.64
2023-02-03T21:25:00.208Z,99372.05
2023-02-03T21:27:30.800Z,99374.61
2023-02-03T21:30:00.787Z,99380.38
2023-02-03T21:32:38.878Z,99395.58
2023-02-03T21:35:37.602Z,99403.67
2023-02-03T21:38:37.363Z,99423.04
2023-02-03T21:41:16.522Z,99432.47
2023-02-03T21:43:47.837Z,99432.81
2023-02-03T21:46:32.940Z,99437.66
2023-02-03T21:49:03.032Z,99453.23
2023-02-03T21:51:35.096Z,99463.11
2023-02-03T21:54:20.562Z,99466.14
2023-02-03T21:56:50.481Z,99478.17
2023-02-03T21:59:21.309Z,99484.20
2023-02-03T22:01:50.136Z,99491.85
2023-02-03T22:04:17.951Z,99497.40
2023-02-03T22:06:49.131Z,99502.08
2023-02-03T22:09:19.887Z,99509.86
2023-02-03T22:11:48.210Z,99512.39
2023-02-03T22:14:17.735Z,99521.77
2023-02-03T22:16:45.659Z,99525.41
2023-02-03T22:19:13.750Z,99543.23
2023-02-03T22:21:41.851Z,99558.23
2023-02-03T22:24:09.688Z,99570.63
2023-02-03T22:26:37.643Z,99590.36
2023-02-03T22:29:05.692Z,99604.46
2023-02-03T22:31:33.867Z,99616.82
2023-02-03T22:34:01.906Z,99623.61
2023-02-03T22:36:29.940Z,99629.80
2023-02-03T22:38:57.887Z,99633.34
2023-02-03T22:41:25.680Z,99638.43
2023-02-03T22:43:53.661Z,99641.33
2023-02-03T22:46:21.657Z,99650.59
2023-02-03T22:48:49.614Z,99654.31
2023-02-03T22:51:17.474Z,99665.09
2023-02-03T22:53:45.577Z,99664.44
2023-02-03T22:56:13.412Z,99670.39
2023-02-03T22:58:41.851Z,99679.34
2023-02-03T23:01:09.674Z,99684.77
2023-02-03T23:03:37.676Z,99691.40
2023-02-03T23:06:06.136Z,99704.34
2023-02-03T23:08:34.017Z,99711.54
2023-02-03T23:11:01.842Z,99729.11
2023-02-03T23:13:29.711Z,99739.02
2023-02-03T23:15:57.659Z,99750.39
2023-02-03T23:18:25.702Z,99759.33
2023-02-03T23:20:53.596Z,99762.60
2023-02-03T23:23:21.495Z,99769.08
2023-02-03T23:25:49.367Z,99764.61
2023-02-03T23:28:17.386Z,99779.33
2023-02-03T23:30:45.454Z,99783.95
2023-02-03T23:33:13.541Z,99790.20
2023-02-03T23:35:47.493Z,99807.42
2023-02-03T23:38:17.094Z,99812.65
2023-02-03T23:40:45.405Z,99826.41
2023-02-03T23:43:14.346Z,99838.27
2023-02-03T23:45:42.394Z,99853.27
2023-02-03T23:48:10.529Z,99863.31
2023-02-03T23:50:38.406Z,99872.36
2023-02-03T23:53:06.302Z,99884.04
2023-02-03T23:55:36.188Z,99887.27
2023-02-03T23:58:05.086Z,99896.95
